Time;durP1;ratioP1;P1;durP2;ratioP2;P2;SDS_P1;SDS_P2;PMS_P1;PMS_P2;Temp;Humidity;BMP_temperature;BMP_pressure;BME280_temperature;BME280_humidity;BME280_pressure;Samples;Min_cycle;Max_cycle;Signal;HPM_P1;HPM_P2
2023/07/01 00:00:55;;;;;;;10.38;2.55;;;17.70;99.90;;;;;;5009277;28;20041;-73
2023/07/01 00:03:21;;;;;;;9.63;2.13;;;17.70;99.90;;;;;;5012511;28;20064;-73
2023/07/01 00:05:46;;;;;;;12.40;2.90;;;17.70;99.90;;;;;;5009922;28;20053;-73
2023/07/01 00:08:12;;;;;;;11.10;2.25;;;17.60;99.90;;;;;;5014864;28;20065;-73
2023/07/01 00:10:38;;;;;;;9.18;2.35;;;17.60;99.90;;;;;;5011095;28;20144;-74
2023/07/01 00:13:04;;;;;;;9.90;2.15;;;17.60;99.90;;;;;;5017600;28;20049;-74
2023/07/01 00:15:30;;;;;;;10.57;2.63;;;17.60;99.90;;;;;;5008560;28;20090;-73
2023/07/01 00:17:55;;;;;;;9.68;2.40;;;17.60;99.90;;;;;;5011996;28;20041;-73
2023/07/01 00:20:21;;;;;;;9.95;2.40;;;17.60;99.90;;;;;;5014457;28;20045;-72
2023/07/01 00:22:47;;;;;;;10.50;2.67;;;17.60;99.90;;;;;;5008341;28;20042;-73
2023/07/01 00:25:13;;;;;;;10.68;2.10;;;17.60;99.90;;;;;;5013272;28;20052;-74
2023/07/01 00:27:39;;;;;;;13.70;3.03;;;17.60;99.90;;;;;;5010600;28;20049;-74
2023/07/01 00:30:05;;;;;;;14.15;2.90;;;17.50;99.90;;;;;;5013937;28;20124;-73
2023/07/01 00:32:31;;;;;;;11.75;2.60;;;17.50;99.90;;;;;;5010081;28;20466;-74
2023/07/01 00:34:57;;;;;;;11.00;2.33;;;17.50;99.90;;;;;;5014635;28;20040;-73
2023/07/01 00:37:22;;;;;;;12.85;2.25;;;17.50;99.90;;;;;;5011086;28;20182;-72
2023/07/01 00:39:48;;;;;;;10.38;2.80;;;17.50;99.90;;;;;;5011258;28;20160;-73
2023/07/01 00:42:14;;;;;;;10.50;3.45;;;17.50;99.90;;;;;;5012474;28;20103;-73
2023/07/01 00:44:40;;;;;;;12.27;2.75;;;17.50;99.90;;;;;;4991331;28;20045;-74
2023/07/01 00:47:06;;;;;;;9.52;2.22;;;17.50;99.90;;;;;;5011611;28;20049;-73
2023/07/01 00:49:32;;;;;;;9.70;2.47;;;17.50;99.90;;;;;;5005513;28;20458;-67
2023/07/01 00:51:59;;;;;;;7.57;1.85;;;17.50;99.90;;;;;;5011273;28;20115;-67
2023/07/01 00:54:26;;;;;;;8.85;2.40;;;17.50;99.90;;;;;;5008515;28;20045;-67
2023/07/01 00:56:52;;;;;;;11.23;2.15;;;17.50;99.90;;;;;;5012297;28;20587;-67
2023/07/01 00:59:17;;;;;;;7.93;2.65;;;17.50;99.90;;;;;;5010132;28;20069;-68
2023/07/01 01:01:46;;;;;;;9.15;2.30;;;17.50;99.90;;;;;;5014275;28;20046;-68
2023/07/01 01:04:34;;;;;;;10.38;2.22;;;17.50;99.90;;;;;;5010211;28;20054;-68
2023/07/01 01:07:08;;;;;;;11.23;2.63;;;17.50;99.90;;;;;;5012468;28;20065;-68
2023/07/01 01:09:57;;;;;;;10.55;2.33;;;17.50;99.90;;;;;;4995894;28;20636;-68
2023/07/01 01:12:27;;;;;;;8.77;2.25;;;17.50;99.90;;;;;;4994861;28;20054;-68
2023/07/01 01:14:54;;;;;;;11.45;2.35;;;17.50;99.90;;;;;;5013043;28;20034;-67
2023/07/01 01:17:21;;;;;;;8.02;1.95;;;17.50;99.90;;;;;;5014370;28;20049;-67
2023/07/01 01:20:12;;;;;;;7.95;1.98;;;17.50;99.90;;;;;;5000216;28;20044;-67
2023/07/01 01:22:46;;;;;;;11.52;2.67;;;17.50;99.90;;;;;;5015719;28;20482;-66
2023/07/01 01:25:20;;;;;;;11.63;2.17;;;17.50;99.90;;;;;;5018812;28;20041;-66
2023/07/01 01:27:46;;;;;;;12.20;2.50;;;17.50;99.90;;;;;;5014880;28;20115;-67
2023/07/01 01:30:14;;;;;;;6.63;2.03;;;17.50;99.90;;;;;;5000960;28;20053;-73
2023/07/01 01:32:39;;;;;;;7.72;2.10;;;17.50;99.90;;;;;;5018449;28;20700;-73
2023/07/01 01:35:06;;;;;;;15.93;2.70;;;17.40;99.90;;;;;;5022378;28;20099;-73
2023/07/01 01:37:46;;;;;;;6.60;2.10;;;17.50;99.90;;;;;;5016386;28;20120;-73
2023/07/01 01:40:22;;;;;;;10.25;2.40;;;17.50;99.90;;;;;;5013996;28;20607;-73
2023/07/01 01:42:50;;;;;;;14.75;2.45;;;17.40;99.90;;;;;;5018168;28;20125;-74
2023/07/01 01:45:19;;;;;;;11.75;2.35;;;17.40;99.90;;;;;;5019850;28;20037;-73
2023/07/01 01:47:47;;;;;;;6.53;2.38;;;17.40;99.90;;;;;;4997718;28;20047;-74
2023/07/01 01:50:16;;;;;;;7.82;2.70;;;17.30;99.90;;;;;;5013406;28;20494;-74
2023/07/01 01:52:41;;;;;;;9.20;2.90;;;17.30;99.90;;;;;;5004176;28;20049;-68
2023/07/01 01:55:10;;;;;;;13.35;2.72;;;17.30;99.90;;;;;;5014571;28;20050;-68
2023/07/01 01:57:36;;;;;;;10.43;3.47;;;17.20;99.90;;;;;;5018622;28;20060;-68
2023/07/01 02:00:08;;;;;;;9.98;2.80;;;17.20;99.90;;;;;;5013279;28;20073;-68
2023/07/01 02:02:35;;;;;;;12.45;3.28;;;17.20;99.90;;;;;;5016605;28;20033;-67
2023/07/01 02:05:01;;;;;;;7.63;2.72;;;17.20;99.90;;;;;;5015828;28;20309;-67
2023/07/01 02:07:27;;;;;;;7.45;2.63;;;17.20;99.90;;;;;;5018920;28;20559;-67
2023/07/01 02:09:52;;;;;;;8.65;2.47;;;17.10;99.90;;;;;;5015245;28;20076;-72
2023/07/01 02:12:18;;;;;;;6.68;2.50;;;17.10;99.90;;;;;;5018029;28;20029;-73
2023/07/01 02:14:44;;;;;;;9.55;2.90;;;17.10;99.90;;;;;;5013550;28;20034;-73
2023/07/01 02:17:09;;;;;;;9.00;3.30;;;17.10;99.90;;;;;;5011218;28;20264;-73
2023/07/01 02:19:35;;;;;;;9.25;2.55;;;17.10;99.90;;;;;;5005795;28;20072;-73
2023/07/01 02:22:01;;;;;;;10.50;2.60;;;17.00;99.90;;;;;;4987050;28;20045;-73
2023/07/01 02:24:27;;;;;;;13.80;3.45;;;17.10;99.90;;;;;;5004645;28;20060;-73
2023/07/01 02:26:52;;;;;;;9.10;3.28;;;17.10;99.90;;;;;;5005515;28;20356;-73
2023/07/01 02:29:19;;;;;;;10.27;2.50;;;17.00;99.90;;;;;;5005719;28;20045;-73
2023/07/01 02:31:45;;;;;;;10.60;3.15;;;17.10;99.90;;;;;;5004129;28;20691;-73
2023/07/01 02:34:10;;;;;;;10.15;3.13;;;17.10;99.90;;;;;;5005069;28;20073;-73
2023/07/01 02:36:40;;;;;;;8.43;2.50;;;17.10;99.90;;;;;;5005897;28;20123;-73
2023/07/01 02:39:06;;;;;;;11.55;3.00;;;17.10;99.90;;;;;;4984057;28;20684;-73
2023/07/01 02:41:32;;;;;;;8.38;3.20;;;17.10;99.90;;;;;;4999237;28;20152;-74
2023/07/01 02:43:57;;;;;;;9.35;2.83;;;17.10;99.90;;;;;;5006042;28;20060;-73
2023/07/01 02:46:23;;;;;;;10.93;2.75;;;17.10;99.90;;;;;;4999120;28;20046;-73
2023/07/01 02:48:49;;;;;;;8.50;2.78;;;17.10;99.90;;;;;;5003071;28;20045;-73
2023/07/01 02:51:16;;;;;;;7.43;3.15;;;17.10;99.90;;;;;;5000474;28;20130;-73
2023/07/01 02:53:42;;;;;;;12.70;3.42;;;17.10;99.90;;;;;;5001011;28;20180;-73
2023/07/01 02:56:08;;;;;;;9.82;2.90;;;17.10;99.90;;;;;;5001785;28;20124;-73
2023/07/01 02:58:34;;;;;;;13.13;3.22;;;17.10;99.90;;;;;;4983998;28;20474;-73
2023/07/01 03:00:59;;;;;;;10.18;3.25;;;17.10;99.90;;;;;;5002532;28;20142;-72
2023/07/01 03:03:26;;;;;;;7.53;2.88;;;17.10;99.90;;;;;;5002187;28;20046;-73
2023/07/01 03:05:52;;;;;;;10.25;3.33;;;17.10;99.90;;;;;;5000104;28;20553;-73
2023/07/01 03:08:17;;;;;;;10.07;3.05;;;17.10;99.90;;;;;;5000568;28;20068;-73
2023/07/01 03:10:43;;;;;;;9.80;2.90;;;17.10;99.90;;;;;;4999850;28;21270;-73
2023/07/01 03:13:09;;;;;;;6.40;3.10;;;17.10;99.90;;;;;;5000846;28;20048;-72
2023/07/01 03:15:34;;;;;;;9.00;3.33;;;17.10;99.90;;;;;;5001582;28;20052;-72
2023/07/01 03:18:00;;;;;;;11.57;4.05;;;17.10;99.90;;;;;;5000812;28;20045;-71
2023/07/01 03:20:26;;;;;;;8.63;4.18;;;17.10;99.90;;;;;;5006302;28;20178;-72
2023/07/01 03:22:54;;;;;;;10.32;3.75;;;17.10;99.90;;;;;;5001995;28;20048;-72
2023/07/01 03:25:20;;;;;;;10.05;4.40;;;17.10;99.90;;;;;;5004041;28;20057;-73
2023/07/01 03:27:46;;;;;;;13.90;4.18;;;17.10;99.90;;;;;;5002800;28;20087;-72
2023/07/01 03:30:13;;;;;;;11.43;4.45;;;17.10;99.90;;;;;;5011662;28;20167;-73
2023/07/01 03:32:47;;;;;;;12.20;4.28;;;17.10;99.90;;;;;;5016135;28;20056;-73
2023/07/01 03:35:14;;;;;;;10.68;4.18;;;17.10;99.90;;;;;;5012705;28;20049;-74
2023/07/01 03:37:41;;;;;;;13.68;4.28;;;17.10;99.90;;;;;;5009292;28;20072;-74
2023/07/01 03:40:10;;;;;;;11.77;4.57;;;17.10;99.90;;;;;;5014736;28;20049;-73
2023/07/01 03:42:40;;;;;;;11.27;4.63;;;17.00;99.90;;;;;;5013646;28;20045;-73
2023/07/01 03:45:07;;;;;;;11.48;4.60;;;17.00;99.90;;;;;;5009909;28;20045;-73
2023/07/01 03:47:35;;;;;;;13.75;4.22;;;17.00;99.90;;;;;;5013118;28;20164;-73
2023/07/01 03:50:00;;;;;;;12.18;4.40;;;17.00;99.90;;;;;;5012917;28;20041;-73
2023/07/01 03:52:26;;;;;;;10.05;4.40;;;16.90;99.90;;;;;;5013464;28;20049;-73
2023/07/01 03:54:52;;;;;;;8.77;4.60;;;17.00;99.90;;;;;;5009898;28;20474;-73
2023/07/01 03:57:17;;;;;;;9.80;4.60;;;16.90;99.90;;;;;;5014407;28;20080;-73
2023/07/01 03:59:43;;;;;;;10.45;4.97;;;16.90;99.90;;;;;;5014149;28;20041;-73
2023/07/01 04:02:10;;;;;;;10.88;4.85;;;16.90;99.90;;;;;;5009246;28;20073;-73
2023/07/01 04:04:36;;;;;;;13.50;5.10;;;16.80;99.90;;;;;;5008649;28;20504;-72
2023/07/01 04:07:04;;;;;;;13.45;5.03;;;16.80;99.90;;;;;;5013620;28;20128;-73
2023/07/01 04:09:30;;;;;;;10.65;4.60;;;16.80;99.90;;;;;;5013393;28;20049;-74
2023/07/01 04:11:56;;;;;;;10.98;4.68;;;16.80;99.90;;;;;;4991840;28;20415;-73
2023/07/01 04:14:23;;;;;;;11.30;5.65;;;16.80;99.90;;;;;;5013692;28;20041;-73
2023/07/01 04:16:50;;;;;;;8.57;5.20;;;16.70;99.90;;;;;;5008713;28;20253;-72
2023/07/01 04:19:16;;;;;;;8.77;4.55;;;16.70;99.90;;;;;;5015832;28;20076;-74
2023/07/01 04:21:42;;;;;;;10.38;4.63;;;16.70;99.90;;;;;;4991038;28;20149;-73
2023/07/01 04:24:08;;;;;;;10.32;5.10;;;16.70;99.90;;;;;;4992338;28;20045;-71
2023/07/01 04:26:36;;;;;;;10.27;4.90;;;16.70;99.90;;;;;;5012723;28;20144;-72
2023/07/01 04:29:03;;;;;;;11.07;4.72;;;16.70;99.90;;;;;;5010535;28;20060;-72
2023/07/01 04:31:28;;;;;;;8.63;4.25;;;16.70;99.90;;;;;;5032059;28;20053;-72
2023/07/01 04:33:55;;;;;;;10.15;4.30;;;16.70;99.90;;;;;;5014941;28;20037;-73
2023/07/01 04:36:21;;;;;;;10.45;4.50;;;16.70;99.90;;;;;;5009990;28;20057;-73
2023/07/01 04:38:47;;;;;;;14.90;5.95;;;16.70;99.90;;;;;;5010661;28;20046;-73
2023/07/01 04:41:13;;;;;;;9.70;5.05;;;16.70;99.90;;;;;;5013611;28;20052;-73
2023/07/01 04:43:40;;;;;;;10.00;4.85;;;16.70;99.90;;;;;;5013998;28;20033;-73
2023/07/01 04:46:05;;;;;;;11.30;4.93;;;16.70;99.90;;;;;;5012083;28;20134;-73
2023/07/01 04:48:32;;;;;;;12.32;5.32;;;16.70;99.90;;;;;;5017068;28;20127;-73
2023/07/01 04:50:58;;;;;;;12.40;4.78;;;16.70;99.90;;;;;;5015681;28;20820;-73
2023/07/01 04:53:24;;;;;;;11.63;5.45;;;16.70;99.90;;;;;;5014996;28;20053;-72
2023/07/01 04:55:50;;;;;;;11.20;5.60;;;16.70;99.90;;;;;;5014089;28;20049;-73
2023/07/01 04:58:16;;;;;;;8.63;5.22;;;16.60;99.90;;;;;;5020608;28;20057;-74
2023/07/01 05:00:42;;;;;;;12.77;5.22;;;16.60;99.90;;;;;;5018720;28;20103;-73
2023/07/01 05:03:07;;;;;;;13.23;5.57;;;16.70;99.90;;;;;;5016104;28;20038;-72
2023/07/01 05:05:33;;;;;;;10.20;5.18;;;16.60;99.90;;;;;;5020435;28;20064;-73
2023/07/01 05:07:59;;;;;;;7.65;5.25;;;16.70;99.90;;;;;;5017847;28;20060;-73
2023/07/01 05:10:25;;;;;;;11.30;5.43;;;16.70;99.90;;;;;;5019305;28;20046;-74
2023/07/01 05:12:51;;;;;;;11.85;5.15;;;16.70;99.90;;;;;;5019290;28;20049;-73
2023/07/01 05:15:17;;;;;;;14.95;5.70;;;16.70;99.90;;;;;;5018918;28;20503;-73
2023/07/01 05:17:43;;;;;;;10.27;5.20;;;16.70;99.90;;;;;;5015042;28;20052;-74
2023/07/01 05:20:10;;;;;;;13.18;4.68;;;16.70;99.90;;;;;;5013392;28;20052;-73
2023/07/01 05:22:36;;;;;;;13.70;5.70;;;16.70;99.90;;;;;;5017429;28;20125;-74
2023/07/01 05:25:03;;;;;;;11.57;4.93;;;16.70;99.90;;;;;;5018636;28;20042;-73
2023/07/01 05:27:29;;;;;;;11.10;4.82;;;16.70;99.90;;;;;;5016428;28;20233;-73
2023/07/01 05:29:56;;;;;;;10.55;5.38;;;16.70;99.90;;;;;;5001730;28;20056;-73
2023/07/01 05:32:21;;;;;;;11.73;4.93;;;16.70;99.90;;;;;;5010617;28;20099;-73
2023/07/01 05:34:47;;;;;;;9.70;4.93;;;16.70;99.90;;;;;;5012420;28;21687;-73
2023/07/01 05:37:13;;;;;;;10.32;5.18;;;16.80;99.90;;;;;;5012043;28;20068;-74
2023/07/01 05:39:39;;;;;;;9.88;5.72;;;16.80;99.90;;;;;;5015104;28;20421;-73
2023/07/01 05:42:05;;;;;;;11.75;5.40;;;16.80;99.90;;;;;;5016557;28;20041;-72
2023/07/01 05:44:31;;;;;;;9.32;5.20;;;16.80;99.90;;;;;;5014342;28;20084;-72
2023/07/01 05:46:58;;;;;;;11.52;5.70;;;16.80;99.90;;;;;;5017233;28;20034;-73
2023/07/01 05:49:24;;;;;;;11.35;6.00;;;16.80;99.90;;;;;;5013778;28;20045;-72
2023/07/01 05:51:50;;;;;;;11.35;5.60;;;16.80;99.90;;;;;;5014203;28;20053;-73
2023/07/01 05:54:16;;;;;;;9.38;5.75;;;16.80;99.90;;;;;;5015185;28;20038;-72
2023/07/01 05:56:41;;;;;;;13.52;5.88;;;16.80;99.90;;;;;;5018329;28;20148;-72
2023/07/01 05:59:07;;;;;;;14.85;6.55;;;16.80;99.90;;;;;;5020405;28;20103;-72
2023/07/01 06:01:33;;;;;;;11.02;6.10;;;16.80;99.90;;;;;;5016044;28;20044;-73
2023/07/01 06:04:00;;;;;;;14.48;6.43;;;16.80;99.90;;;;;;5013194;28;20601;-74
2023/07/01 06:06:26;;;;;;;10.02;6.20;;;16.80;99.90;;;;;;5018123;28;20057;-73
2023/07/01 06:08:51;;;;;;;13.60;6.28;;;16.80;99.90;;;;;;5017269;28;20063;-72
2023/07/01 06:11:17;;;;;;;11.32;6.85;;;16.80;99.90;;;;;;5020278;28;20160;-73
2023/07/01 06:13:47;;;;;;;13.50;6.68;;;16.80;99.90;;;;;;5014634;28;20578;-72
2023/07/01 06:16:17;;;;;;;13.35;7.28;;;16.80;99.90;;;;;;5015660;28;20053;-73
2023/07/01 06:18:42;;;;;;;12.18;7.70;;;16.80;99.90;;;;;;5014052;28;20041;-74
2023/07/01 06:21:09;;;;;;;10.73;6.65;;;16.80;99.90;;;;;;5015170;28;20053;-73
2023/07/01 06:23:36;;;;;;;11.70;7.00;;;16.70;99.90;;;;;;5015386;28;20115;-73
2023/07/01 06:26:02;;;;;;;15.45;6.95;;;16.70;99.90;;;;;;5018669;28;20511;-72
2023/07/01 06:28:28;;;;;;;11.10;7.20;;;16.70;99.90;;;;;;4995824;28;20414;-72
2023/07/01 06:30:54;;;;;;;16.33;6.60;;;16.70;99.90;;;;;;5009778;28;20045;-73
2023/07/01 06:33:19;;;;;;;13.10;6.68;;;16.70;99.90;;;;;;5014017;28;20073;-72
2023/07/01 06:35:45;;;;;;;13.55;6.53;;;16.80;99.90;;;;;;5014769;28;20083;-71
2023/07/01 06:38:11;;;;;;;10.57;6.50;;;16.80;99.90;;;;;;5010025;28;20042;-72
2023/07/01 06:40:37;;;;;;;11.20;6.78;;;16.70;99.90;;;;;;5013292;28;20046;-73
2023/07/01 06:43:03;;;;;;;8.77;6.57;;;16.80;99.90;;;;;;5014796;28;20549;-73
2023/07/01 06:45:30;;;;;;;12.65;7.00;;;16.80;99.90;;;;;;5011274;28;20543;-72
2023/07/01 06:47:56;;;;;;;11.00;6.82;;;16.80;99.90;;;;;;5008641;28;21066;-72
2023/07/01 06:50:22;;;;;;;9.95;6.05;;;16.80;99.90;;;;;;5011876;28;20034;-72
2023/07/01 06:52:48;;;;;;;13.18;6.15;;;16.80;99.90;;;;;;5010779;28;20505;-73
2023/07/01 06:55:14;;;;;;;9.13;6.32;;;16.90;99.90;;;;;;4999192;28;20045;-67
2023/07/01 06:57:44;;;;;;;12.73;6.55;;;16.90;99.90;;;;;;5011280;28;20056;-67
2023/07/01 07:00:12;;;;;;;8.10;6.15;;;16.90;99.90;;;;;;5011335;28;20044;-72
2023/07/01 07:02:39;;;;;;;8.80;5.75;;;16.90;99.90;;;;;;5017485;28;20045;-72
2023/07/01 07:05:06;;;;;;;7.32;5.57;;;16.90;99.90;;;;;;5010848;28;20061;-72
2023/07/01 07:07:32;;;;;;;8.32;5.05;;;16.90;99.90;;;;;;5005733;28;20038;-73
2023/07/01 07:09:58;;;;;;;7.60;5.25;;;16.90;99.90;;;;;;5010448;28;20048;-73
2023/07/01 07:12:25;;;;;;;7.10;4.70;;;16.90;99.90;;;;;;5012856;28;20472;-67
2023/07/01 07:14:51;;;;;;;10.90;5.75;;;16.90;99.90;;;;;;5012303;28;20372;-73
2023/07/01 07:17:17;;;;;;;8.50;4.88;;;16.90;99.90;;;;;;5006350;28;20084;-73
2023/07/01 07:19:42;;;;;;;7.55;5.18;;;17.00;99.90;;;;;;5009442;28;20061;-72
2023/07/01 07:22:08;;;;;;;9.50;5.18;;;16.90;99.90;;;;;;5015832;28;20044;-72
2023/07/01 07:24:34;;;;;;;9.38;5.38;;;17.00;99.90;;;;;;5012953;28;20064;-73
2023/07/01 07:27:01;;;;;;;8.13;5.10;;;17.00;99.90;;;;;;5013830;28;20050;-72
2023/07/01 07:29:31;;;;;;;6.47;4.45;;;16.90;99.90;;;;;;5014965;28;20210;-72
2023/07/01 07:31:57;;;;;;;7.13;5.13;;;17.00;99.90;;;;;;5014158;28;20744;-73
2023/07/01 07:34:23;;;;;;;7.03;4.50;;;17.00;99.90;;;;;;5011114;28;20669;-73
2023/07/01 07:36:50;;;;;;;8.90;4.60;;;17.00;99.90;;;;;;4999319;28;20057;-73
2023/07/01 07:39:16;;;;;;;6.47;4.38;;;17.00;99.90;;;;;;5015808;28;20547;-74
2023/07/01 07:41:44;;;;;;;6.35;4.65;;;17.10;99.90;;;;;;4991174;28;20052;-72
2023/07/01 07:44:09;;;;;;;7.07;4.15;;;17.10;99.90;;;;;;5018040;28;20430;-73
2023/07/01 07:46:37;;;;;;;6.45;4.05;;;17.10;99.90;;;;;;5005368;28;20049;-72
2023/07/01 07:49:06;;;;;;;6.68;4.43;;;17.10;99.90;;;;;;5004246;28;20071;-73
2023/07/01 07:51:32;;;;;;;6.22;4.13;;;17.20;99.90;;;;;;4992403;28;20076;-73
2023/07/01 07:53:58;;;;;;;7.15;4.00;;;17.20;99.90;;;;;;4993804;28;20045;-72
2023/07/01 07:56:23;;;;;;;5.50;4.10;;;17.20;99.90;;;;;;5010998;28;20049;-73
2023/07/01 07:58:49;;;;;;;6.85;3.80;;;17.40;99.90;;;;;;5009206;28;20056;-72
2023/07/01 08:01:15;;;;;;;6.53;3.97;;;17.40;99.90;;;;;;5001124;28;20583;-72
2023/07/01 08:03:41;;;;;;;5.15;3.63;;;17.40;99.90;;;;;;4995206;28;20054;-72
2023/07/01 08:06:07;;;;;;;5.93;3.58;;;17.50;99.90;;;;;;4979897;28;20049;-72
2023/07/01 08:08:34;;;;;;;5.53;3.22;;;17.50;99.90;;;;;;4998908;28;20056;-74
2023/07/01 08:11:00;;;;;;;5.85;3.97;;;17.50;99.90;;;;;;4996853;28;20515;-73
2023/07/01 08:13:26;;;;;;;5.30;3.70;;;17.50;99.90;;;;;;5007964;28;20080;-73
2023/07/01 08:15:52;;;;;;;4.97;3.53;;;17.50;99.90;;;;;;5008224;28;20049;-73
2023/07/01 08:18:18;;;;;;;6.43;3.67;;;17.50;99.90;;;;;;4996665;28;20119;-73
2023/07/01 08:20:44;;;;;;;7.63;3.80;;;17.50;99.90;;;;;;5006957;28;21923;-73
2023/07/01 08:23:11;;;;;;;8.38;3.58;;;17.50;99.90;;;;;;5018260;28;20041;-73
2023/07/01 08:25:40;;;;;;;6.45;4.00;;;17.50;99.90;;;;;;4992943;28;20410;-72
2023/07/01 08:28:07;;;;;;;5.88;3.53;;;17.50;99.90;;;;;;5019447;28;20045;-72
2023/07/01 08:30:33;;;;;;;5.75;3.88;;;17.50;99.90;;;;;;5022188;28;20046;-73
2023/07/01 08:32:58;;;;;;;6.15;3.60;;;17.60;99.90;;;;;;5026397;28;20342;-73
2023/07/01 08:35:24;;;;;;;7.00;3.88;;;17.60;99.90;;;;;;5014662;28;20049;-73
2023/07/01 08:37:50;;;;;;;5.10;3.40;;;17.60;99.90;;;;;;5007750;28;20056;-73
2023/07/01 08:40:16;;;;;;;5.20;3.60;;;17.70;99.90;;;;;;5024450;28;20079;-67
2023/07/01 08:42:50;;;;;;;5.93;3.45;;;17.70;99.90;;;;;;5019827;28;20050;-67
2023/07/01 08:45:20;;;;;;;5.30;3.10;;;17.70;99.90;;;;;;5022797;28;20064;-67
2023/07/01 08:47:46;;;;;;;5.18;3.13;;;17.70;99.90;;;;;;5024582;28;20084;-67
2023/07/01 08:50:18;;;;;;;7.57;3.22;;;17.80;99.90;;;;;;5024654;28;20124;-66
2023/07/01 08:52:52;;;;;;;5.05;3.17;;;17.80;99.90;;;;;;5003631;28;20141;-67
2023/07/01 08:55:22;;;;;;;5.07;2.78;;;17.80;99.90;;;;;;5013962;28;20057;-66
2023/07/01 08:57:48;;;;;;;6.55;3.20;;;17.90;99.90;;;;;;5017769;28;20453;-67
2023/07/01 09:00:14;;;;;;;4.82;2.92;;;17.90;99.90;;;;;;5019611;28;20053;-67
2023/07/01 09:02:40;;;;;;;4.72;3.03;;;17.90;99.90;;;;;;5022326;28;20391;-67
2023/07/01 09:05:06;;;;;;;6.25;2.88;;;18.00;99.90;;;;;;5016210;28;20049;-67
2023/07/01 09:07:32;;;;;;;4.45;2.83;;;18.00;99.90;;;;;;5012311;28;20628;-66
2023/07/01 09:10:00;;;;;;;4.07;2.33;;;18.10;99.90;;;;;;5012642;28;20060;-67
2023/07/01 09:12:29;;;;;;;3.90;2.10;;;18.10;99.90;;;;;;5026182;28;20498;-67
2023/07/01 09:15:12;;;;;;;3.58;2.10;;;18.20;99.90;;;;;;5020597;28;20067;-67
2023/07/01 09:17:40;;;;;;;4.00;2.30;;;18.20;99.90;;;;;;5016934;28;20060;-67
2023/07/01 09:20:08;;;;;;;3.22;2.00;;;18.30;99.90;;;;;;5023941;28;20087;-67
2023/07/01 09:22:36;;;;;;;3.15;2.00;;;18.20;99.90;;;;;;5003139;28;20072;-67
2023/07/01 09:25:02;;;;;;;4.57;1.90;;;18.30;99.90;;;;;;5021706;28;20541;-67
2023/07/01 09:27:40;;;;;;;3.42;1.60;;;18.30;99.90;;;;;;5021185;28;20140;-67
2023/07/01 09:30:24;;;;;;;2.80;1.75;;;18.30;99.90;;;;;;5015477;28;20571;-68
2023/07/01 09:32:50;;;;;;;2.95;1.90;;;18.30;99.90;;;;;;5020358;28;20076;-67
2023/07/01 09:35:16;;;;;;;4.72;1.85;;;18.30;99.90;;;;;;5017600;28;20124;-67
2023/07/01 09:37:43;;;;;;;4.30;1.92;;;18.30;99.90;;;;;;5013247;28;20077;-67
2023/07/01 09:40:29;;;;;;;3.95;1.80;;;18.40;99.90;;;;;;5014550;28;20861;-67
2023/07/01 09:42:55;;;;;;;2.55;1.30;;;18.40;99.90;;;;;;5014044;28;20049;-67
2023/07/01 09:45:21;;;;;;;1.73;1.17;;;18.40;99.90;;;;;;5008023;28;20529;-67
2023/07/01 09:47:52;;;;;;;2.42;1.17;;;18.50;99.90;;;;;;5016023;28;20054;-67
2023/07/01 09:50:30;;;;;;;3.23;1.10;;;18.50;99.90;;;;;;5014498;28;20046;-67
2023/07/01 09:52:56;;;;;;;2.90;1.00;;;18.50;99.90;;;;;;5010311;28;20395;-67
2023/07/01 09:55:23;;;;;;;2.03;1.25;;;18.50;99.90;;;;;;5014443;28;20041;-67
2023/07/01 09:57:49;;;;;;;3.78;1.25;;;18.60;99.90;;;;;;5013865;28;20037;-67
2023/07/01 10:00:15;;;;;;;6.30;1.63;;;18.60;99.90;;;;;;5015012;28;20103;-67
2023/07/01 10:02:46;;;;;;;3.53;1.38;;;18.60;99.90;;;;;;5013628;28;20135;-68
2023/07/01 10:05:13;;;;;;;2.78;1.40;;;18.60;99.90;;;;;;5016384;28;20050;-67
2023/07/01 10:07:43;;;;;;;4.13;1.48;;;18.60;99.90;;;;;;5017014;28;20784;-67
2023/07/01 10:10:21;;;;;;;5.63;1.83;;;18.60;99.90;;;;;;5017750;28;20088;-67
2023/07/01 10:12:48;;;;;;;4.15;2.45;;;18.60;99.90;;;;;;5015694;28;20052;-68
2023/07/01 10:15:20;;;;;;;3.83;1.85;;;18.60;99.90;;;;;;5019290;28;20080;-68
2023/07/01 10:17:50;;;;;;;6.22;2.55;;;18.70;99.90;;;;;;5014784;28;20109;-68
2023/07/01 10:20:42;;;;;;;5.22;2.70;;;18.70;99.90;;;;;;5017627;28;20053;-67
2023/07/01 10:23:08;;;;;;;5.28;2.97;;;18.80;99.90;;;;;;5015713;28;20586;-68
2023/07/01 10:25:38;;;;;;;9.10;3.00;;;18.80;99.90;;;;;;5019455;28;20034;-68
2023/07/01 10:28:09;;;;;;;5.85;2.92;;;18.80;99.90;;;;;;5015761;28;20446;-68
2023/07/01 10:30:44;;;;;;;10.38;4.95;;;18.80;99.90;;;;;;5018759;28;20060;-68
2023/07/01 10:33:33;;;;;;;6.60;3.05;;;18.90;99.90;;;;;;5017743;28;20053;-67
2023/07/01 10:36:03;;;;;;;5.45;3.08;;;18.90;99.90;;;;;;5020785;28;20390;-67
2023/07/01 10:38:30;;;;;;;5.78;3.45;;;19.00;99.90;;;;;;4999601;28;20532;-68
2023/07/01 10:40:56;;;;;;;5.40;3.25;;;19.00;99.90;;;;;;5014304;28;20129;-67
2023/07/01 10:43:26;;;;;;;5.30;3.08;;;19.00;99.90;;;;;;5017536;28;20037;-67
2023/07/01 10:46:19;;;;;;;7.05;3.50;;;19.00;99.90;;;;;;5016995;28;20096;-67
2023/07/01 10:49:03;;;;;;;6.18;3.25;;;19.00;99.90;;;;;;4999970;28;20713;-67
2023/07/01 10:51:45;;;;;;;5.32;3.03;;;19.00;99.90;;;;;;5015203;28;20173;-68
2023/07/01 10:54:11;;;;;;;6.78;2.78;;;19.00;99.90;;;;;;5015316;28;20049;-68
2023/07/01 10:57:17;;;;;;;6.40;2.90;;;19.00;99.90;;;;;;5000962;28;20315;-67
2023/07/01 10:59:43;;;;;;;7.03;2.67;;;19.00;99.90;;;;;;5017069;28;20037;-68
2023/07/01 11:02:35;;;;;;;4.47;2.17;;;19.00;99.90;;;;;;5015149;28;20045;-68
2023/07/01 11:05:03;;;;;;;4.68;2.50;;;19.00;99.90;;;;;;5017351;28;20449;-68
2023/07/01 11:07:30;;;;;;;5.55;2.65;;;18.90;99.90;;;;;;5001226;28;20084;-67
2023/07/01 11:09:56;;;;;;;6.55;3.08;;;18.90;99.90;;;;;;5001289;28;20430;-67
2023/07/01 11:12:23;;;;;;;6.28;2.90;;;19.00;99.90;;;;;;5017119;28;20041;-67
2023/07/01 11:14:53;;;;;;;6.90;3.00;;;19.00;99.90;;;;;;5003657;28;20072;-67
2023/07/01 11:17:20;;;;;;;5.53;3.08;;;19.00;99.90;;;;;;5018140;28;20045;-68
2023/07/01 11:19:54;;;;;;;5.50;3.22;;;19.00;99.90;;;;;;5017616;28;20033;-68
2023/07/01 11:22:20;;;;;;;6.88;3.42;;;19.00;99.90;;;;;;5017183;28;20045;-68
2023/07/01 11:24:46;;;;;;;8.48;3.75;;;19.00;99.90;;;;;;5022494;28;20033;-68
2023/07/01 11:27:11;;;;;;;6.22;3.88;;;18.90;99.90;;;;;;5023476;28;20037;-68
2023/07/01 11:29:40;;;;;;;8.75;4.55;;;18.90;99.90;;;;;;5019850;28;20049;-67
2023/07/01 11:32:14;;;;;;;7.43;4.80;;;18.80;99.90;;;;;;5017894;28;20049;-68
2023/07/01 11:34:41;;;;;;;8.80;5.03;;;18.80;99.90;;;;;;4999749;28;20041;-68
2023/07/01 11:37:07;;;;;;;9.93;5.80;;;18.90;99.90;;;;;;5016469;28;20052;-68
2023/07/01 11:39:41;;;;;;;12.98;5.57;;;18.80;99.90;;;;;;4993551;28;22374;-68
2023/07/01 11:42:07;;;;;;;11.25;6.18;;;18.80;99.90;;;;;;5015617;28;20058;-67
2023/07/01 11:44:33;;;;;;;9.05;5.97;;;18.80;99.90;;;;;;5017033;28;20068;-68
2023/07/01 11:46:59;;;;;;;9.40;6.03;;;18.80;99.90;;;;;;5016504;28;20049;-68
2023/07/01 11:49:29;;;;;;;10.77;6.65;;;18.80;99.90;;;;;;5014583;28;20107;-68
2023/07/01 11:52:06;;;;;;;12.70;6.53;;;18.80;99.90;;;;;;5015632;28;20072;-67
2023/07/01 11:54:44;;;;;;;10.48;7.15;;;18.90;99.90;;;;;;5017050;28;20049;-67
2023/07/01 11:57:18;;;;;;;10.50;6.47;;;19.00;99.90;;;;;;5017392;28;20617;-68
2023/07/01 11:59:52;;;;;;;11.45;6.82;;;19.00;99.90;;;;;;5022302;28;20107;-67
2023/07/01 12:02:29;;;;;;;9.80;6.40;;;19.10;99.90;;;;;;5020894;28;20115;-67
2023/07/01 12:04:55;;;;;;;11.25;6.15;;;19.20;99.90;;;;;;5015938;28;20067;-68
2023/07/01 12:07:21;;;;;;;12.02;6.10;;;19.20;99.90;;;;;;5016361;28;20119;-67
2023/07/01 12:09:47;;;;;;;10.15;6.07;;;19.20;99.90;;;;;;4999208;28;20049;-68
2023/07/01 12:12:32;;;;;;;9.45;5.65;;;19.20;99.90;;;;;;5021867;28;20045;-68
2023/07/01 12:15:09;;;;;;;10.02;4.82;;;19.20;99.90;;;;;;5018856;28;20496;-67
2023/07/01 12:17:36;;;;;;;12.75;5.72;;;19.20;99.90;;;;;;5012224;28;20076;-67
2023/07/01 12:20:04;;;;;;;12.57;5.30;;;19.20;99.90;;;;;;5010904;28;21144;-67
2023/07/01 12:22:30;;;;;;;10.05;5.38;;;19.30;99.90;;;;;;5022077;28;20414;-68
2023/07/01 12:24:57;;;;;;;8.25;4.95;;;19.30;99.90;;;;;;5016860;28;20041;-68
2023/07/01 12:27:23;;;;;;;8.90;4.50;;;19.40;99.90;;;;;;5012327;28;20532;-67
2023/07/01 12:29:49;;;;;;;8.60;5.15;;;19.50;99.90;;;;;;5011303;28;20053;-68
2023/07/01 12:32:15;;;;;;;8.48;4.63;;;19.50;99.90;;;;;;5005295;28;20041;-67
2023/07/01 12:34:41;;;;;;;9.65;4.93;;;19.60;99.90;;;;;;5003961;28;20103;-68
2023/07/01 12:37:10;;;;;;;8.10;4.70;;;19.60;99.90;;;;;;4994764;28;20037;-68
2023/07/01 12:39:36;;;;;;;6.20;4.25;;;19.60;99.90;;;;;;5002777;28;20504;-67
2023/07/01 12:42:03;;;;;;;9.10;4.00;;;19.60;99.90;;;;;;5001356;28;20050;-68
2023/07/01 12:44:29;;;;;;;7.93;3.85;;;19.70;99.90;;;;;;4995745;28;20092;-68
2023/07/01 12:46:55;;;;;;;9.18;3.88;;;19.70;99.90;;;;;;4993773;28;20045;-68